sensor_id;sensor_type;location;lat;lon;timestamp;P1;durP1;ratioP1;P2;durP2;ratioP2
75465;SDS011;64049;46.290;44.240;2023-07-20T00:00:13;10.50;;;6.07;;
75465;SDS011;64049;46.290;44.240;2023-07-20T00:02:39;9.82;;;5.38;;
75465;SDS011;64049;46.290;44.240;2023-07-20T00:05:05;12.13;;;6.05;;
75465;SDS011;64049;46.290;44.240;2023-07-20T00:07:31;13.57;;;5.68;;
75465;SDS011;64049;46.290;44.240;2023-07-20T00:09:57;9.82;;;6.22;;
75465;SDS011;64049;46.290;44.240;2023-07-20T00:12:23;10.00;;;5.68;;
75465;SDS011;64049;46.290;44.240;2023-07-20T00:14:49;9.80;;;6.03;;
75465;SDS011;64049;46.290;44.240;2023-07-20T00:17:19;11.13;;;5.72;;
75465;SDS011;64049;46.290;44.240;2023-07-20T00:19:45;8.35;;;4.95;;
75465;SDS011;64049;46.290;44.240;2023-07-20T00:22:11;10.55;;;6.25;;
75465;SDS011;64049;46.290;44.240;2023-07-20T00:24:38;11.15;;;5.72;;
75465;SDS011;64049;46.290;44.240;2023-07-20T00:27:04;6.90;;;3.85;;
75465;SDS011;64049;46.290;44.240;2023-07-20T00:29:30;10.98;;;4.95;;
75465;SDS011;64049;46.290;44.240;2023-07-20T00:31:56;11.65;;;5.15;;
75465;SDS011;64049;46.290;44.240;2023-07-20T00:34:22;10.07;;;4.25;;
75465;SDS011;64049;46.290;44.240;2023-07-20T00:36:48;10.07;;;4.60;;
75465;SDS011;64049;46.290;44.240;2023-07-20T00:39:15;9.15;;;3.83;;
75465;SDS011;64049;46.290;44.240;2023-07-20T00:41:42;7.80;;;4.35;;
75465;SDS011;64049;46.290;44.240;2023-07-20T00:44:08;6.90;;;3.40;;
75465;SDS011;64049;46.290;44.240;2023-07-20T00:46:34;13.30;;;5.45;;
75465;SDS011;64049;46.290;44.240;2023-07-20T00:49:00;8.85;;;4.53;;
75465;SDS011;64049;46.290;44.240;2023-07-20T00:51:26;9.15;;;4.47;;
75465;SDS011;64049;46.290;44.240;2023-07-20T00:53:52;7.40;;;4.68;;
75465;SDS011;64049;46.290;44.240;2023-07-20T00:56:19;11.27;;;5.18;;
75465;SDS011;64049;46.290;44.240;2023-07-20T00:58:45;11.10;;;5.20;;
75465;SDS011;64049;46.290;44.240;2023-07-20T01:01:11;12.65;;;5.38;;
75465;SDS011;64049;46.290;44.240;2023-07-20T01:03:37;10.98;;;4.68;;
75465;SDS011;64049;46.290;44.240;2023-07-20T01:06:14;10.25;;;4.72;;
75465;SDS011;64049;46.290;44.240;2023-07-20T01:11:36;12.15;;;5.25;;
75465;SDS011;64049;46.290;44.240;2023-07-20T01:14:08;10.45;;;4.82;;
75465;SDS011;64049;46.290;44.240;2023-07-20T01:16:35;8.93;;;5.00;;
75465;SDS011;64049;46.290;44.240;2023-07-20T01:19:01;11.55;;;5.30;;
75465;SDS011;64049;46.290;44.240;2023-07-20T01:21:39;9.93;;;4.07;;
75465;SDS011;64049;46.290;44.240;2023-07-20T01:27:00;9.82;;;3.25;;
75465;SDS011;64049;46.290;44.240;2023-07-20T01:32:17;8.88;;;4.55;;
75465;SDS011;64049;46.290;44.240;2023-07-20T01:34:44;13.65;;;4.80;;
75465;SDS011;64049;46.290;44.240;2023-07-20T01:37:14;8.55;;;4.32;;
75465;SDS011;64049;46.290;44.240;2023-07-20T01:39:42;7.25;;;3.78;;
75465;SDS011;64049;46.290;44.240;2023-07-20T01:42:08;8.85;;;4.25;;
75465;SDS011;64049;46.290;44.240;2023-07-20T01:44:34;9.65;;;4.32;;
75465;SDS011;64049;46.290;44.240;2023-07-20T01:47:00;7.93;;;4.25;;
75465;SDS011;64049;46.290;44.240;2023-07-20T01:49:26;7.55;;;3.85;;
75465;SDS011;64049;46.290;44.240;2023-07-20T01:51:51;9.77;;;4.15;;
75465;SDS011;64049;46.290;44.240;2023-07-20T01:54:17;7.07;;;3.45;;
75465;SDS011;64049;46.290;44.240;2023-07-20T01:59:46;10.98;;;3.97;;
75465;SDS011;64049;46.290;44.240;2023-07-20T02:02:12;7.90;;;3.50;;
75465;SDS011;64049;46.290;44.240;2023-07-20T02:04:38;6.43;;;3.03;;
75465;SDS011;64049;46.290;44.240;2023-07-20T02:07:04;9.10;;;3.20;;
75465;SDS011;64049;46.290;44.240;2023-07-20T02:09:30;5.85;;;2.65;;
75465;SDS011;64049;46.290;44.240;2023-07-20T02:11:55;6.72;;;3.00;;
75465;SDS011;64049;46.290;44.240;2023-07-20T02:14:22;6.13;;;3.42;;
75465;SDS011;64049;46.290;44.240;2023-07-20T02:16:48;8.85;;;3.30;;
75465;SDS011;64049;46.290;44.240;2023-07-20T02:19:19;10.07;;;3.05;;
75465;SDS011;64049;46.290;44.240;2023-07-20T02:21:46;13.48;;;4.57;;
75465;SDS011;64049;46.290;44.240;2023-07-20T02:24:12;5.72;;;2.95;;
75465;SDS011;64049;46.290;44.240;2023-07-20T02:26:38;11.70;;;3.13;;
75465;SDS011;64049;46.290;44.240;2023-07-20T02:29:04;6.20;;;3.05;;
75465;SDS011;64049;46.290;44.240;2023-07-20T02:31:30;8.93;;;3.22;;
75465;SDS011;64049;46.290;44.240;2023-07-20T02:33:56;7.32;;;3.00;;
75465;SDS011;64049;46.290;44.240;2023-07-20T02:36:22;6.97;;;2.50;;
75465;SDS011;64049;46.290;44.240;2023-07-20T02:38:48;6.60;;;2.47;;
75465;SDS011;64049;46.290;44.240;2023-07-20T02:41:14;10.55;;;2.78;;
75465;SDS011;64049;46.290;44.240;2023-07-20T02:43:39;6.15;;;2.25;;
75465;SDS011;64049;46.290;44.240;2023-07-20T02:46:05;7.95;;;2.00;;
75465;SDS011;64049;46.290;44.240;2023-07-20T02:48:33;4.53;;;2.10;;
75465;SDS011;64049;46.290;44.240;2023-07-20T02:51:00;9.70;;;2.25;;
75465;SDS011;64049;46.290;44.240;2023-07-20T02:53:26;7.18;;;2.97;;
75465;SDS011;64049;46.290;44.240;2023-07-20T02:55:51;6.20;;;2.42;;
75465;SDS011;64049;46.290;44.240;2023-07-20T02:58:17;8.32;;;2.13;;
75465;SDS011;64049;46.290;44.240;2023-07-20T03:00:43;6.15;;;2.17;;
75465;SDS011;64049;46.290;44.240;2023-07-20T03:03:09;6.05;;;2.33;;
75465;SDS011;64049;46.290;44.240;2023-07-20T03:05:36;6.15;;;2.67;;
75465;SDS011;64049;46.290;44.240;2023-07-20T03:08:05;9.38;;;2.97;;
75465;SDS011;64049;46.290;44.240;2023-07-20T03:10:31;8.55;;;2.50;;
75465;SDS011;64049;46.290;44.240;2023-07-20T03:12:58;4.97;;;2.17;;
75465;SDS011;64049;46.290;44.240;2023-07-20T03:15:24;7.38;;;2.13;;
75465;SDS011;64049;46.290;44.240;2023-07-20T03:17:51;5.43;;;2.05;;
75465;SDS011;64049;46.290;44.240;2023-07-20T03:20:17;7.80;;;3.17;;
75465;SDS011;64049;46.290;44.240;2023-07-20T03:22:43;11.80;;;3.90;;
75465;SDS011;64049;46.290;44.240;2023-07-20T03:25:09;6.13;;;2.35;;
75465;SDS011;64049;46.290;44.240;2023-07-20T03:27:35;8.52;;;3.65;;
75465;SDS011;64049;46.290;44.240;2023-07-20T03:30:01;7.22;;;2.25;;
75465;SDS011;64049;46.290;44.240;2023-07-20T03:32:28;5.75;;;2.22;;
75465;SDS011;64049;46.290;44.240;2023-07-20T03:34:54;8.75;;;2.38;;
75465;SDS011;64049;46.290;44.240;2023-07-20T03:37:21;6.20;;;2.25;;
75465;SDS011;64049;46.290;44.240;2023-07-20T03:39:47;8.75;;;3.20;;
75465;SDS011;64049;46.290;44.240;2023-07-20T03:42:15;5.10;;;2.20;;
75465;SDS011;64049;46.290;44.240;2023-07-20T03:44:41;5.75;;;2.10;;
75465;SDS011;64049;46.290;44.240;2023-07-20T03:47:07;6.90;;;2.85;;
75465;SDS011;64049;46.290;44.240;2023-07-20T03:49:34;7.88;;;2.60;;
75465;SDS011;64049;46.290;44.240;2023-07-20T03:52:01;7.30;;;3.13;;
75465;SDS011;64049;46.290;44.240;2023-07-20T03:54:30;6.63;;;3.35;;
75465;SDS011;64049;46.290;44.240;2023-07-20T03:56:56;5.40;;;2.03;;
75465;SDS011;64049;46.290;44.240;2023-07-20T03:59:22;6.95;;;1.92;;
75465;SDS011;64049;46.290;44.240;2023-07-20T04:01:48;5.13;;;2.17;;
75465;SDS011;64049;46.290;44.240;2023-07-20T04:04:15;6.47;;;2.50;;
75465;SDS011;64049;46.290;44.240;2023-07-20T04:06:41;5.70;;;2.15;;
75465;SDS011;64049;46.290;44.240;2023-07-20T04:09:09;6.55;;;2.92;;
75465;SDS011;64049;46.290;44.240;2023-07-20T04:11:36;7.38;;;2.33;;
75465;SDS011;64049;46.290;44.240;2023-07-20T04:14:02;6.38;;;2.22;;
75465;SDS011;64049;46.290;44.240;2023-07-20T04:16:28;5.78;;;2.05;;
75465;SDS011;64049;46.290;44.240;2023-07-20T04:18:57;6.60;;;2.30;;
75465;SDS011;64049;46.290;44.240;2023-07-20T04:21:23;6.38;;;2.47;;
75465;SDS011;64049;46.290;44.240;2023-07-20T04:23:51;7.35;;;2.13;;
75465;SDS011;64049;46.290;44.240;2023-07-20T04:26:17;7.07;;;2.67;;
75465;SDS011;64049;46.290;44.240;2023-07-20T04:28:43;5.07;;;2.03;;
75465;SDS011;64049;46.290;44.240;2023-07-20T04:31:15;8.52;;;2.22;;
75465;SDS011;64049;46.290;44.240;2023-07-20T04:33:42;5.32;;;2.22;;
75465;SDS011;64049;46.290;44.240;2023-07-20T04:36:08;6.57;;;2.50;;
75465;SDS011;64049;46.290;44.240;2023-07-20T04:38:35;6.00;;;1.70;;
75465;SDS011;64049;46.290;44.240;2023-07-20T04:41:14;6.93;;;2.35;;
75465;SDS011;64049;46.290;44.240;2023-07-20T04:43:44;7.68;;;2.13;;
75465;SDS011;64049;46.290;44.240;2023-07-20T04:46:12;8.05;;;2.00;;
75465;SDS011;64049;46.290;44.240;2023-07-20T04:48:39;8.43;;;2.35;;
75465;SDS011;64049;46.290;44.240;2023-07-20T04:51:06;7.95;;;1.92;;
75465;SDS011;64049;46.290;44.240;2023-07-20T04:53:32;5.47;;;2.05;;
75465;SDS011;64049;46.290;44.240;2023-07-20T04:55:58;10.15;;;2.05;;
75465;SDS011;64049;46.290;44.240;2023-07-20T04:58:24;8.73;;;2.35;;
75465;SDS011;64049;46.290;44.240;2023-07-20T05:00:52;9.27;;;2.45;;
75465;SDS011;64049;46.290;44.240;2023-07-20T05:03:19;9.05;;;2.78;;
75465;SDS011;64049;46.290;44.240;2023-07-20T05:05:46;5.85;;;2.30;;
75465;SDS011;64049;46.290;44.240;2023-07-20T05:08:12;8.80;;;2.58;;
75465;SDS011;64049;46.290;44.240;2023-07-20T05:10:38;5.88;;;2.20;;
75465;SDS011;64049;46.290;44.240;2023-07-20T05:13:04;7.28;;;2.28;;
75465;SDS011;64049;46.290;44.240;2023-07-20T05:15:32;4.63;;;1.75;;
75465;SDS011;64049;46.290;44.240;2023-07-20T05:17:59;6.43;;;2.15;;
75465;SDS011;64049;46.290;44.240;2023-07-20T05:20:26;13.13;;;3.10;;
75465;SDS011;64049;46.290;44.240;2023-07-20T05:25:19;15.80;;;3.38;;
75465;SDS011;64049;46.290;44.240;2023-07-20T05:27:48;7.50;;;2.45;;
75465;SDS011;64049;46.290;44.240;2023-07-20T05:30:15;7.43;;;2.60;;
75465;SDS011;64049;46.290;44.240;2023-07-20T05:32:41;7.05;;;1.95;;
75465;SDS011;64049;46.290;44.240;2023-07-20T05:35:07;5.00;;;2.20;;
75465;SDS011;64049;46.290;44.240;2023-07-20T05:37:35;6.28;;;2.53;;
75465;SDS011;64049;46.290;44.240;2023-07-20T05:40:01;6.25;;;2.20;;
75465;SDS011;64049;46.290;44.240;2023-07-20T05:42:26;7.07;;;2.30;;
75465;SDS011;64049;46.290;44.240;2023-07-20T05:44:52;4.40;;;2.08;;
75465;SDS011;64049;46.290;44.240;2023-07-20T05:47:19;7.53;;;1.80;;
75465;SDS011;64049;46.290;44.240;2023-07-20T05:49:48;6.80;;;2.30;;
75465;SDS011;64049;46.290;44.240;2023-07-20T05:52:14;7.25;;;2.30;;
75465;SDS011;64049;46.290;44.240;2023-07-20T05:54:40;4.63;;;2.03;;
75465;SDS011;64049;46.290;44.240;2023-07-20T05:57:06;4.38;;;1.83;;
75465;SDS011;64049;46.290;44.240;2023-07-20T05:59:32;8.52;;;2.30;;
75465;SDS011;64049;46.290;44.240;2023-07-20T06:01:58;8.82;;;2.20;;
75465;SDS011;64049;46.290;44.240;2023-07-20T06:04:23;7.45;;;1.63;;
75465;SDS011;64049;46.290;44.240;2023-07-20T06:06:49;6.25;;;1.40;;
75465;SDS011;64049;46.290;44.240;2023-07-20T06:09:15;5.32;;;1.40;;
75465;SDS011;64049;46.290;44.240;2023-07-20T06:11:41;4.47;;;1.92;;
75465;SDS011;64049;46.290;44.240;2023-07-20T06:14:07;5.38;;;1.50;;
75465;SDS011;64049;46.290;44.240;2023-07-20T06:16:33;5.93;;;2.03;;
75465;SDS011;64049;46.290;44.240;2023-07-20T06:19:02;14.00;;;3.10;;
75465;SDS011;64049;46.290;44.240;2023-07-20T06:21:28;13.82;;;2.15;;
75465;SDS011;64049;46.290;44.240;2023-07-20T06:23:56;6.90;;;2.00;;
75465;SDS011;64049;46.290;44.240;2023-07-20T06:26:22;6.22;;;1.80;;
75465;SDS011;64049;46.290;44.240;2023-07-20T06:28:48;6.25;;;1.60;;
75465;SDS011;64049;46.290;44.240;2023-07-20T06:31:14;5.30;;;1.60;;
75465;SDS011;64049;46.290;44.240;2023-07-20T06:33:40;6.45;;;1.95;;
75465;SDS011;64049;46.290;44.240;2023-07-20T06:36:06;5.05;;;2.00;;
75465;SDS011;64049;46.290;44.240;2023-07-20T06:38:32;4.55;;;1.40;;
75465;SDS011;64049;46.290;44.240;2023-07-20T06:43:24;5.72;;;2.10;;
75465;SDS011;64049;46.290;44.240;2023-07-20T06:45:51;5.35;;;1.50;;
75465;SDS011;64049;46.290;44.240;2023-07-20T06:48:18;7.30;;;1.70;;
75465;SDS011;64049;46.290;44.240;2023-07-20T06:50:44;6.47;;;1.80;;
75465;SDS011;64049;46.290;44.240;2023-07-20T06:53:10;6.65;;;1.20;;
75465;SDS011;64049;46.290;44.240;2023-07-20T06:55:36;8.52;;;1.73;;
75465;SDS011;64049;46.290;44.240;2023-07-20T06:58:02;6.55;;;1.17;;
75465;SDS011;64049;46.290;44.240;2023-07-20T07:00:28;5.55;;;2.15;;
75465;SDS011;64049;46.290;44.240;2023-07-20T07:02:54;5.85;;;1.67;;
75465;SDS011;64049;46.290;44.240;2023-07-20T07:05:20;7.03;;;1.92;;
75465;SDS011;64049;46.290;44.240;2023-07-20T07:07:46;7.72;;;2.33;;
75465;SDS011;64049;46.290;44.240;2023-07-20T07:10:12;6.95;;;2.17;;
75465;SDS011;64049;46.290;44.240;2023-07-20T07:12:38;8.40;;;2.00;;
75465;SDS011;64049;46.290;44.240;2023-07-20T07:15:04;7.22;;;1.70;;
75465;SDS011;64049;46.290;44.240;2023-07-20T07:17:33;6.38;;;1.70;;
75465;SDS011;64049;46.290;44.240;2023-07-20T07:20:00;4.57;;;1.30;;
75465;SDS011;64049;46.290;44.240;2023-07-20T07:22:26;8.18;;;1.83;;
75465;SDS011;64049;46.290;44.240;2023-07-20T07:24:52;5.03;;;1.55;;
75465;SDS011;64049;46.290;44.240;2023-07-20T07:27:19;6.18;;;1.63;;
75465;SDS011;64049;46.290;44.240;2023-07-20T07:29:44;3.45;;;1.20;;
75465;SDS011;64049;46.290;44.240;2023-07-20T07:32:10;5.03;;;1.45;;
75465;SDS011;64049;46.290;44.240;2023-07-20T07:34:36;3.58;;;1.58;;
75465;SDS011;64049;46.290;44.240;2023-07-20T07:37:03;4.03;;;1.33;;
75465;SDS011;64049;46.290;44.240;2023-07-20T07:39:30;3.90;;;1.60;;
75465;SDS011;64049;46.290;44.240;2023-07-20T07:41:56;5.22;;;1.50;;
75465;SDS011;64049;46.290;44.240;2023-07-20T07:44:22;5.43;;;2.05;;
75465;SDS011;64049;46.290;44.240;2023-07-20T07:46:49;4.18;;;1.60;;
75465;SDS011;64049;46.290;44.240;2023-07-20T07:49:16;4.25;;;1.27;;
75465;SDS011;64049;46.290;44.240;2023-07-20T07:51:42;4.55;;;1.88;;
75465;SDS011;64049;46.290;44.240;2023-07-20T07:54:08;5.00;;;1.63;;
75465;SDS011;64049;46.290;44.240;2023-07-20T07:56:33;5.35;;;1.50;;
75465;SDS011;64049;46.290;44.240;2023-07-20T07:58:59;7.15;;;1.70;;
75465;SDS011;64049;46.290;44.240;2023-07-20T08:01:25;5.95;;;1.45;;
75465;SDS011;64049;46.290;44.240;2023-07-20T08:03:51;2.83;;;1.00;;
75465;SDS011;64049;46.290;44.240;2023-07-20T08:06:17;4.50;;;1.10;;
75465;SDS011;64049;46.290;44.240;2023-07-20T08:08:43;3.97;;;1.10;;
75465;SDS011;64049;46.290;44.240;2023-07-20T08:11:08;3.78;;;1.20;;
75465;SDS011;64049;46.290;44.240;2023-07-20T08:13:35;3.53;;;1.10;;
75465;SDS011;64049;46.290;44.240;2023-07-20T08:16:01;3.80;;;1.13;;
75465;SDS011;64049;46.290;44.240;2023-07-20T08:18:30;3.88;;;1.23;;
75465;SDS011;64049;46.290;44.240;2023-07-20T08:20:56;8.50;;;2.42;;
75465;SDS011;64049;46.290;44.240;2023-07-20T08:23:22;7.13;;;1.63;;
75465;SDS011;64049;46.290;44.240;2023-07-20T08:25:48;9.60;;;1.70;;
75465;SDS011;64049;46.290;44.240;2023-07-20T08:28:14;5.72;;;1.40;;
75465;SDS011;64049;46.290;44.240;2023-07-20T08:30:42;6.78;;;1.17;;
75465;SDS011;64049;46.290;44.240;2023-07-20T08:33:27;3.60;;;1.15;;
75465;SDS011;64049;46.290;44.240;2023-07-20T08:35:55;5.55;;;1.67;;
75465;SDS011;64049;46.290;44.240;2023-07-20T08:38:21;7.40;;;1.67;;
75465;SDS011;64049;46.290;44.240;2023-07-20T08:40:47;4.55;;;1.05;;
75465;SDS011;64049;46.290;44.240;2023-07-20T08:43:15;7.07;;;1.52;;
75465;SDS011;64049;46.290;44.240;2023-07-20T08:45:44;4.93;;;1.20;;
75465;SDS011;64049;46.290;44.240;2023-07-20T08:48:10;4.10;;;1.63;;
75465;SDS011;64049;46.290;44.240;2023-07-20T08:50:37;4.20;;;1.75;;
75465;SDS011;64049;46.290;44.240;2023-07-20T08:53:04;8.77;;;1.48;;
75465;SDS011;64049;46.290;44.240;2023-07-20T08:55:30;4.32;;;1.30;;
75465;SDS011;64049;46.290;44.240;2023-07-20T08:57:58;2.22;;;0.82;;
75465;SDS011;64049;46.290;44.240;2023-07-20T09:00:25;3.20;;;1.08;;
75465;SDS011;64049;46.290;44.240;2023-07-20T09:02:55;5.60;;;1.25;;
75465;SDS011;64049;46.290;44.240;2023-07-20T09:05:22;4.40;;;1.60;;
75465;SDS011;64049;46.290;44.240;2023-07-20T09:07:50;5.45;;;1.65;;
75465;SDS011;64049;46.290;44.240;2023-07-20T09:10:20;3.90;;;1.10;;
75465;SDS011;64049;46.290;44.240;2023-07-20T09:12:47;3.45;;;1.25;;
75465;SDS011;64049;46.290;44.240;2023-07-20T09:15:13;3.75;;;1.20;;
75465;SDS011;64049;46.290;44.240;2023-07-20T09:17:39;4.78;;;1.30;;
75465;SDS011;64049;46.290;44.240;2023-07-20T09:20:10;6.15;;;1.20;;
75465;SDS011;64049;46.290;44.240;2023-07-20T09:22:37;3.03;;;1.00;;
75465;SDS011;64049;46.290;44.240;2023-07-20T09:25:07;5.43;;;1.10;;
75465;SDS011;64049;46.290;44.240;2023-07-20T09:27:37;6.00;;;1.23;;
75465;SDS011;64049;46.290;44.240;2023-07-20T09:30:04;4.18;;;0.82;;
75465;SDS011;64049;46.290;44.240;2023-07-20T09:32:44;3.72;;;1.27;;
75465;SDS011;64049;46.290;44.240;2023-07-20T09:35:14;3.38;;;1.08;;
75465;SDS011;64049;46.290;44.240;2023-07-20T09:37:48;5.10;;;1.42;;
75465;SDS011;64049;46.290;44.240;2023-07-20T09:40:25;5.80;;;1.60;;
75465;SDS011;64049;46.290;44.240;2023-07-20T09:42:52;3.78;;;1.33;;
75465;SDS011;64049;46.290;44.240;2023-07-20T09:45:43;3.53;;;1.20;;
75465;SDS011;64049;46.290;44.240;2023-07-20T09:48:10;5.20;;;1.60;;
75465;SDS011;64049;46.290;44.240;2023-07-20T09:50:40;4.55;;;1.40;;
75465;SDS011;64049;46.290;44.240;2023-07-20T09:53:07;4.05;;;1.27;;
75465;SDS011;64049;46.290;44.240;2023-07-20T09:55:40;3.58;;;1.45;;
75465;SDS011;64049;46.290;44.240;2023-07-20T09:58:10;3.00;;;1.10;;
75465;SDS011;64049;46.290;44.240;2023-07-20T10:00:37;3.63;;;1.00;;
75465;SDS011;64049;46.290;44.240;2023-07-20T10:03:04;3.58;;;1.40;;
75465;SDS011;64049;46.290;44.240;2023-07-20T10:05:35;3.70;;;1.35;;
75465;SDS011;64049;46.290;44.240;2023-07-20T10:08:04;4.50;;;1.58;;
75465;SDS011;64049;46.290;44.240;2023-07-20T10:10:34;4.65;;;1.95;;
75465;SDS011;64049;46.290;44.240;2023-07-20T10:13:01;4.22;;;1.58;;
75465;SDS011;64049;46.290;44.240;2023-07-20T10:15:40;6.32;;;2.00;;
75465;SDS011;64049;46.290;44.240;2023-07-20T10:21:13;4.20;;;1.50;;
75465;SDS011;64049;46.290;44.240;2023-07-20T10:23:42;5.03;;;1.60;;
75465;SDS011;64049;46.290;44.240;2023-07-20T10:26:08;6.25;;;1.85;;
75465;SDS011;64049;46.290;44.240;2023-07-20T10:28:36;9.55;;;2.15;;
75465;SDS011;64049;46.290;44.240;2023-07-20T10:31:02;5.07;;;1.70;;
75465;SDS011;64049;46.290;44.240;2023-07-20T10:33:28;7.95;;;1.67;;
75465;SDS011;64049;46.290;44.240;2023-07-20T10:35:57;4.20;;;1.70;;
75465;SDS011;64049;46.290;44.240;2023-07-20T10:43:47;2.28;;;1.00;;
75465;SDS011;64049;46.290;44.240;2023-07-20T10:46:14;4.63;;;1.50;;
75465;SDS011;64049;46.290;44.240;2023-07-20T10:49:00;6.50;;;2.47;;
75465;SDS011;64049;46.290;44.240;2023-07-20T10:51:27;4.03;;;1.30;;
75465;SDS011;64049;46.290;44.240;2023-07-20T10:53:56;3.28;;;1.25;;
75465;SDS011;64049;46.290;44.240;2023-07-20T10:56:27;3.83;;;1.20;;
75465;SDS011;64049;46.290;44.240;2023-07-20T10:58:59;3.90;;;1.23;;
75465;SDS011;64049;46.290;44.240;2023-07-20T11:01:30;4.22;;;1.42;;
75465;SDS011;64049;46.290;44.240;2023-07-20T11:04:02;4.20;;;1.35;;
75465;SDS011;64049;46.290;44.240;2023-07-20T11:06:33;4.45;;;1.27;;
75465;SDS011;64049;46.290;44.240;2023-07-20T11:09:10;3.45;;;1.20;;
75465;SDS011;64049;46.290;44.240;2023-07-20T11:11:41;4.30;;;1.38;;
75465;SDS011;64049;46.290;44.240;2023-07-20T11:14:11;5.65;;;1.42;;
75465;SDS011;64049;46.290;44.240;2023-07-20T11:16:47;5.30;;;1.23;;
75465;SDS011;64049;46.290;44.240;2023-07-20T11:19:18;3.63;;;1.30;;
75465;SDS011;64049;46.290;44.240;2023-07-20T11:21:46;4.45;;;1.40;;
75465;SDS011;64049;46.290;44.240;2023-07-20T11:24:16;4.72;;;1.30;;
75465;SDS011;64049;46.290;44.240;2023-07-20T11:26:45;6.90;;;1.85;;
75465;SDS011;64049;46.290;44.240;2023-07-20T11:29:12;3.35;;;1.15;;
75465;SDS011;64049;46.290;44.240;2023-07-20T11:31:42;2.47;;;0.90;;
75465;SDS011;64049;46.290;44.240;2023-07-20T11:34:12;2.78;;;0.90;;
75465;SDS011;64049;46.290;44.240;2023-07-20T11:36:44;4.30;;;1.23;;
75465;SDS011;64049;46.290;44.240;2023-07-20T11:39:12;4.30;;;1.23;;
75465;SDS011;64049;46.290;44.240;2023-07-20T11:41:46;6.03;;;1.38;;
75465;SDS011;64049;46.290;44.240;2023-07-20T11:44:18;3.72;;;1.40;;
75465;SDS011;64049;46.290;44.240;2023-07-20T11:46:46;3.50;;;1.30;;
75465;SDS011;64049;46.290;44.240;2023-07-20T11:49:12;4.38;;;1.10;;
75465;SDS011;64049;46.290;44.240;2023-07-20T11:51:39;3.72;;;1.23;;
75465;SDS011;64049;46.290;44.240;2023-07-20T11:54:07;3.20;;;1.10;;
75465;SDS011;64049;46.290;44.240;2023-07-20T11:56:34;3.33;;;1.00;;
75465;SDS011;64049;46.290;44.240;2023-07-20T11:59:00;3.35;;;1.10;;
75465;SDS011;64049;46.290;44.240;2023-07-20T12:01:28;5.13;;;1.40;;
75465;SDS011;64049;46.290;44.240;2023-07-20T12:03:57;3.60;;;0.75;;
75465;SDS011;64049;46.290;44.240;2023-07-20T12:06:28;2.45;;;0.73;;
75465;SDS011;64049;46.290;44.240;2023-07-20T12:08:57;3.85;;;0.70;;
75465;SDS011;64049;46.290;44.240;2023-07-20T12:11:57;3.42;;;1.05;;
75465;SDS011;64049;46.290;44.240;2023-07-20T12:14:16;3.60;;;1.10;;
75465;SDS011;64049;46.290;44.240;2023-07-20T12:16:42;3.00;;;1.00;;
75465;SDS011;64049;46.290;44.240;2023-07-20T12:19:09;3.25;;;1.00;;
75465;SDS011;64049;46.290;44.240;2023-07-20T12:21:37;4.55;;;0.88;;
75465;SDS011;64049;46.290;44.240;2023-07-20T12:24:08;4.55;;;0.75;;
75465;SDS011;64049;46.290;44.240;2023-07-20T12:26:35;4.32;;;0.95;;
75465;SDS011;64049;46.290;44.240;2023-07-20T12:29:01;3.08;;;0.68;;
75465;SDS011;64049;46.290;44.240;2023-07-20T12:31:29;2.17;;;0.70;;
75465;SDS011;64049;46.290;44.240;2023-07-20T12:36:21;3.38;;;0.95;;
75465;SDS011;64049;46.290;44.240;2023-07-20T12:38:50;4.30;;;1.23;;
75465;SDS011;64049;46.290;44.240;2023-07-20T12:41:16;3.05;;;0.98;;
75465;SDS011;64049;46.290;44.240;2023-07-20T12:43:45;2.53;;;0.88;;
75465;SDS011;64049;46.290;44.240;2023-07-20T12:46:12;2.83;;;0.77;;
75465;SDS011;64049;46.290;44.240;2023-07-20T12:48:38;2.42;;;0.90;;
75465;SDS011;64049;46.290;44.240;2023-07-20T12:51:10;4.32;;;0.95;;
75465;SDS011;64049;46.290;44.240;2023-07-20T12:53:37;4.78;;;0.85;;
75465;SDS011;64049;46.290;44.240;2023-07-20T12:56:03;5.15;;;1.00;;
75465;SDS011;64049;46.290;44.240;2023-07-20T12:58:29;2.83;;;0.80;;
75465;SDS011;64049;46.290;44.240;2023-07-20T13:00:55;3.45;;;0.82;;
75465;SDS011;64049;46.290;44.240;2023-07-20T13:03:21;3.92;;;0.85;;
75465;SDS011;64049;46.290;44.240;2023-07-20T13:05:48;2.97;;;0.98;;
75465;SDS011;64049;46.290;44.240;2023-07-20T13:08:15;2.03;;;0.70;;
75465;SDS011;64049;46.290;44.240;2023-07-20T13:10:41;2.50;;;0.70;;
75465;SDS011;64049;46.290;44.240;2023-07-20T13:13:07;2.78;;;1.30;;
75465;SDS011;64049;46.290;44.240;2023-07-20T13:15:40;4.13;;;0.90;;
75465;SDS011;64049;46.290;44.240;2023-07-20T13:18:08;3.95;;;0.80;;
75465;SDS011;64049;46.290;44.240;2023-07-20T13:20:34;4.03;;;0.90;;
75465;SDS011;64049;46.290;44.240;2023-07-20T13:23:00;3.15;;;0.90;;
75465;SDS011;64049;46.290;44.240;2023-07-20T13:25:25;2.58;;;0.65;;
75465;SDS011;64049;46.290;44.240;2023-07-20T13:27:52;5.30;;;0.90;;
75465;SDS011;64049;46.290;44.240;2023-07-20T13:30:18;4.35;;;0.82;;
75465;SDS011;64049;46.290;44.240;2023-07-20T13:32:49;4.35;;;0.85;;
75465;SDS011;64049;46.290;44.240;2023-07-20T13:35:15;2.97;;;0.85;;
75465;SDS011;64049;46.290;44.240;2023-07-20T13:37:41;4.95;;;1.00;;
75465;SDS011;64049;46.290;44.240;2023-07-20T13:40:07;3.42;;;1.20;;
75465;SDS011;64049;46.290;44.240;2023-07-20T13:42:37;2.05;;;0.55;;
75465;SDS011;64049;46.290;44.240;2023-07-20T13:45:03;4.28;;;1.13;;
75465;SDS011;64049;46.290;44.240;2023-07-20T13:47:30;2.22;;;0.70;;
75465;SDS011;64049;46.290;44.240;2023-07-20T13:49:55;3.33;;;1.00;;
75465;SDS011;64049;46.290;44.240;2023-07-20T13:52:21;4.07;;;0.90;;
75465;SDS011;64049;46.290;44.240;2023-07-20T13:54:47;1.58;;;0.50;;
75465;SDS011;64049;46.290;44.240;2023-07-20T13:57:14;5.47;;;1.10;;
75465;SDS011;64049;46.290;44.240;2023-07-20T13:59:40;4.53;;;1.00;;
75465;SDS011;64049;46.290;44.240;2023-07-20T14:02:06;3.95;;;0.82;;
75465;SDS011;64049;46.290;44.240;2023-07-20T14:04:32;2.65;;;0.95;;
75465;SDS011;64049;46.290;44.240;2023-07-20T14:06:58;4.10;;;0.80;;
75465;SDS011;64049;46.290;44.240;2023-07-20T14:09:24;5.18;;;1.00;;
75465;SDS011;64049;46.290;44.240;2023-07-20T14:11:50;5.75;;;0.80;;
75465;SDS011;64049;46.290;44.240;2023-07-20T14:14:16;4.95;;;1.00;;
75465;SDS011;64049;46.290;44.240;2023-07-20T14:16:44;4.30;;;0.80;;
75465;SDS011;64049;46.290;44.240;2023-07-20T14:19:10;3.63;;;1.00;;
75465;SDS011;64049;46.290;44.240;2023-07-20T14:21:35;2.13;;;0.60;;
75465;SDS011;64049;46.290;44.240;2023-07-20T14:24:01;2.83;;;0.70;;
75465;SDS011;64049;46.290;44.240;2023-07-20T14:26:27;3.00;;;0.82;;
75465;SDS011;64049;46.290;44.240;2023-07-20T14:28:56;8.98;;;0.90;;
75465;SDS011;64049;46.290;44.240;2023-07-20T14:31:21;3.60;;;0.90;;
75465;SDS011;64049;46.290;44.240;2023-07-20T14:33:53;2.95;;;0.90;;
75465;SDS011;64049;46.290;44.240;2023-07-20T14:36:19;7.00;;;1.42;;
75465;SDS011;64049;46.290;44.240;2023-07-20T14:38:45;3.25;;;0.98;;
75465;SDS011;64049;46.290;44.240;2023-07-20T14:41:11;7.75;;;1.30;;
75465;SDS011;64049;46.290;44.240;2023-07-20T14:43:37;4.00;;;0.95;;
75465;SDS011;64049;46.290;44.240;2023-07-20T14:46:03;3.53;;;0.90;;
75465;SDS011;64049;46.290;44.240;2023-07-20T14:48:29;4.10;;;0.80;;
75465;SDS011;64049;46.290;44.240;2023-07-20T14:50:57;3.65;;;0.70;;
75465;SDS011;64049;46.290;44.240;2023-07-20T14:53:23;3.30;;;0.80;;
75465;SDS011;64049;46.290;44.240;2023-07-20T14:55:57;3.65;;;0.80;;
75465;SDS011;64049;46.290;44.240;2023-07-20T14:58:25;4.50;;;1.20;;
75465;SDS011;64049;46.290;44.240;2023-07-20T15:00:51;3.38;;;0.75;;